Time;durP1;ratioP1;P1;durP2;ratioP2;P2;SDS_P1;SDS_P2;PMS_P1;PMS_P2;Temp;Humidity;BMP_temperature;BMP_pressure;BME280_temperature;BME280_humidity;BME280_pressure;Samples;Min_cycle;Max_cycle;Signal;HPM_P1;HPM_P2
2022/01/09 03:45:44;;;;;;;53.75;27.05;;;-1.40;97.10;;;;;;5542448;24;20068;-82
2022/01/09 03:48:10;;;;;;;54.57;27.17;;;-1.50;97.10;;;;;;4804418;29;20322;-82
2022/01/09 03:50:36;;;;;;;59.93;28.30;;;-1.50;97.10;;;;;;4803494;29;20042;-82
2022/01/09 03:53:04;;;;;;;49.10;25.88;;;-1.40;97.00;;;;;;4788809;29;20074;-82
2022/01/09 03:55:29;;;;;;;53.47;25.38;;;-1.50;97.10;;;;;;4803913;29;20062;-82
2022/01/09 03:57:55;;;;;;;53.20;26.13;;;-1.40;96.90;;;;;;4788913;29;20083;-82
2022/01/09 04:00:23;;;;;;;49.53;26.17;;;-1.40;96.90;;;;;;4803887;29;20046;-82
2022/01/09 04:02:50;;;;;;;54.67;27.15;;;-1.40;96.80;;;;;;4818626;29;20250;-82
2022/01/09 04:05:17;;;;;;;54.65;28.52;;;-1.40;96.80;;;;;;4818880;29;20087;-83
2022/01/09 04:07:42;;;;;;;53.78;28.55;;;-1.40;96.70;;;;;;4773645;29;20087;-82
2022/01/09 04:10:09;;;;;;;55.30;29.30;;;-1.40;96.80;;;;;;4774063;29;20043;-82
2022/01/09 04:12:37;;;;;;;58.53;29.73;;;-1.50;96.70;;;;;;4803744;29;20046;-82
2022/01/09 04:15:06;;;;;;;68.68;32.45;;;-1.50;96.70;;;;;;4818796;29;20357;-83
2022/01/09 04:20:27;;;;;;;62.33;31.83;;;-1.50;96.90;;;;;;4733328;30;20101;-82
2022/01/09 04:22:53;;;;;;;54.78;29.85;;;-1.60;97.10;;;;;;4761632;30;20044;-82
2022/01/09 04:25:19;;;;;;;54.20;29.50;;;-1.60;97.40;;;;;;4746880;30;20464;-82
2022/01/09 04:27:47;;;;;;;50.63;27.20;;;-1.60;97.50;;;;;;4761672;30;20324;-82
2022/01/09 04:30:13;;;;;;;57.90;29.52;;;-1.70;97.40;;;;;;4747147;30;20221;-82
2022/01/09 04:32:39;;;;;;;57.10;30.97;;;-1.70;97.50;;;;;;4744195;30;20048;-82
2022/01/09 04:35:06;;;;;;;58.40;30.30;;;-1.70;97.60;;;;;;4744266;30;20044;-82
2022/01/09 04:37:34;;;;;;;54.65;29.17;;;-1.60;97.60;;;;;;4733581;30;20119;-82
2022/01/09 04:40:00;;;;;;;60.28;28.73;;;-1.70;97.60;;;;;;4746812;30;20044;-82
2022/01/09 04:42:33;;;;;;;50.20;27.52;;;-1.70;97.70;;;;;;4761493;30;20047;-82
2022/01/09 04:44:59;;;;;;;50.40;27.40;;;-1.70;97.80;;;;;;4761238;30;20048;-80
2022/01/09 04:47:25;;;;;;;51.53;27.90;;;-1.70;97.60;;;;;;4742747;30;20061;-80
2022/01/09 04:49:51;;;;;;;51.00;27.70;;;-1.60;97.50;;;;;;4741019;30;20255;-80
2022/01/09 04:52:20;;;;;;;60.07;29.10;;;-1.60;97.40;;;;;;4714999;30;20336;-80
2022/01/09 04:54:46;;;;;;;49.17;27.35;;;-1.60;97.30;;;;;;4743839;30;20064;-81
2022/01/09 04:57:12;;;;;;;52.50;27.57;;;-1.50;97.20;;;;;;4771967;30;20050;-81
2022/01/09 04:59:38;;;;;;;58.40;29.33;;;-1.50;97.10;;;;;;4783385;30;20102;-81
2022/01/09 05:02:05;;;;;;;52.60;28.17;;;-1.50;97.00;;;;;;4811434;29;20054;-80
2022/01/09 05:04:30;;;;;;;54.50;28.88;;;-1.60;97.00;;;;;;4795004;30;20062;-81
2022/01/09 05:06:56;;;;;;;54.58;28.90;;;-1.60;97.10;;;;;;4800709;29;20069;-80
2022/01/09 05:09:22;;;;;;;56.47;28.17;;;-1.60;97.10;;;;;;4809450;29;20035;-80
2022/01/09 05:11:49;;;;;;;51.55;27.67;;;-1.60;97.20;;;;;;4801196;29;20039;-81
2022/01/09 05:14:16;;;;;;;55.08;28.17;;;-1.60;97.10;;;;;;4797156;30;20047;-80
2022/01/09 05:16:44;;;;;;;51.10;28.77;;;-1.60;97.50;;;;;;4799989;29;20117;-81
2022/01/09 05:19:17;;;;;;;54.42;27.50;;;-1.50;97.20;;;;;;4782149;30;20263;-80
2022/01/09 05:21:44;;;;;;;47.90;25.73;;;-1.50;97.30;;;;;;4765264;29;20042;-80
2022/01/09 05:24:10;;;;;;;;;;;-1.50;97.00;;;;;;4770083;29;20113;-80
2022/01/09 05:26:36;;;;;;;54.67;27.97;;;-1.50;96.80;;;;;;4799753;29;19916;-80
2022/01/09 05:29:02;;;;;;;47.63;25.90;;;-1.50;96.80;;;;;;4766832;30;20047;-80
2022/01/09 05:31:29;;;;;;;51.70;26.27;;;-1.50;96.80;;;;;;4785844;29;20053;-80
2022/01/09 05:33:55;;;;;;;48.85;26.48;;;-1.50;96.70;;;;;;4784273;29;20043;-81
2022/01/09 05:36:20;;;;;;;49.67;25.83;;;-1.50;96.50;;;;;;4798560;29;20045;-80
2022/01/09 05:38:46;;;;;;;49.65;26.23;;;-1.40;96.40;;;;;;4776696;29;20072;-80
2022/01/09 05:41:12;;;;;;;51.10;26.70;;;-1.40;96.20;;;;;;4784499;29;20031;-80
2022/01/09 05:43:40;;;;;;;50.33;25.43;;;-1.50;96.10;;;;;;4799521;29;20130;-80
2022/01/09 05:46:06;;;;;;;53.83;26.58;;;-1.50;96.00;;;;;;4796238;30;20079;-80
2022/01/09 05:48:32;;;;;;;47.03;24.97;;;-1.50;95.90;;;;;;4787962;30;20054;-81
2022/01/09 05:50:57;;;;;;;51.75;25.48;;;-1.50;96.20;;;;;;4781149;30;20488;-80
2022/01/09 05:53:23;;;;;;;52.97;27.30;;;-1.50;96.00;;;;;;4790355;29;20039;-81
2022/01/09 05:55:49;;;;;;;51.83;27.35;;;-1.50;96.10;;;;;;4784475;29;20041;-80
2022/01/09 05:58:16;;;;;;;;;;;-1.50;96.00;;;;;;4789660;30;20343;-81
2022/01/09 06:00:42;;;;;;;51.70;27.63;;;-1.50;96.10;;;;;;4799995;29;19948;-81
2022/01/09 06:03:07;;;;;;;52.05;26.73;;;-1.60;96.30;;;;;;4785151;29;20038;-82
2022/01/09 06:05:33;;;;;;;53.20;26.30;;;-1.50;96.30;;;;;;4784943;29;20050;-81
2022/01/09 06:07:59;;;;;;;48.63;24.75;;;-1.60;96.20;;;;;;4784883;29;20035;-81
2022/01/09 06:10:25;;;;;;;54.28;26.08;;;-1.60;96.30;;;;;;4799666;29;20342;-81
2022/01/09 06:12:51;;;;;;;49.67;26.40;;;-1.60;96.40;;;;;;4783575;29;20359;-81
2022/01/09 06:15:17;;;;;;;56.23;26.27;;;-1.50;96.40;;;;;;4802407;29;20054;-82
2022/01/09 06:17:43;;;;;;;53.67;26.65;;;-1.60;96.40;;;;;;4800228;29;20040;-81
2022/01/09 06:20:10;;;;;;;;;;;-1.60;96.60;;;;;;4808184;29;20042;-82
2022/01/09 06:22:36;;;;;;;53.72;25.40;;;-1.60;96.70;;;;;;4819373;29;19912;-81
2022/01/09 06:25:02;;;;;;;48.75;25.95;;;-1.60;96.90;;;;;;4818159;29;20037;-81
2022/01/09 06:27:28;;;;;;;54.47;25.85;;;-1.50;96.80;;;;;;4783187;29;20031;-81
2022/01/09 06:29:54;;;;;;;51.72;26.67;;;-1.50;96.70;;;;;;4788323;29;20043;-81
2022/01/09 06:32:20;;;;;;;53.67;28.30;;;-1.50;96.70;;;;;;4785056;29;20047;-81
2022/01/09 06:34:45;;;;;;;50.45;26.35;;;-1.50;97.00;;;;;;4785143;29;20073;-81
2022/01/09 06:37:12;;;;;;;53.17;26.08;;;-1.50;97.00;;;;;;4792099;29;20035;-81
2022/01/09 06:39:39;;;;;;;51.83;25.30;;;-1.40;96.80;;;;;;4788186;29;20054;-81
2022/01/09 06:42:05;;;;;;;50.25;26.58;;;-1.50;96.70;;;;;;4788171;29;20035;-81
2022/01/09 06:44:31;;;;;;;60.30;27.33;;;-1.40;96.80;;;;;;4818100;29;20043;-81
2022/01/09 06:46:57;;;;;;;48.20;26.03;;;-1.40;96.70;;;;;;4802437;29;20093;-81
2022/01/09 06:49:23;;;;;;;51.03;27.80;;;-1.40;96.70;;;;;;4802412;29;20170;-81
2022/01/09 06:51:49;;;;;;;56.10;29.10;;;-1.40;96.70;;;;;;4817266;29;20058;-83
2022/01/09 06:54:14;;;;;;;50.67;28.17;;;-1.40;96.80;;;;;;4787487;29;20350;-82
2022/01/09 06:56:41;;;;;;;53.80;29.52;;;-1.40;96.80;;;;;;4817363;29;20042;-81
2022/01/09 06:59:07;;;;;;;52.10;27.88;;;-1.40;96.80;;;;;;4816992;29;20058;-81
2022/01/09 07:01:33;;;;;;;58.50;30.17;;;-1.40;96.90;;;;;;4816695;29;20268;-81
2022/01/09 07:03:59;;;;;;;57.03;28.42;;;-1.40;97.00;;;;;;4816776;29;20042;-81
2022/01/09 07:06:25;;;;;;;56.63;30.27;;;-1.40;97.10;;;;;;4785673;29;20091;-81
2022/01/09 07:08:50;;;;;;;60.92;30.75;;;-1.30;97.00;;;;;;4797191;30;20055;-81
2022/01/09 07:11:16;;;;;;;59.33;30.93;;;-1.30;97.10;;;;;;4785010;29;20039;-81
2022/01/09 07:13:42;;;;;;;64.90;32.88;;;-1.30;97.10;;;;;;4831423;29;20042;-81
2022/01/09 07:16:08;;;;;;;56.77;30.63;;;-1.20;97.20;;;;;;4816566;29;20023;-81
2022/01/09 07:18:34;;;;;;;55.00;30.40;;;-1.10;97.30;;;;;;4801442;29;20030;-81
2022/01/09 07:21:00;;;;;;;56.03;30.98;;;-1.10;97.20;;;;;;4831506;29;20083;-81
2022/01/09 07:23:25;;;;;;;57.63;29.65;;;-1.00;97.20;;;;;;4795396;29;20315;-81
2022/01/09 07:25:51;;;;;;;65.55;30.67;;;-0.90;97.20;;;;;;4811788;29;20042;-81
2022/01/09 07:28:17;;;;;;;61.05;31.10;;;-0.80;97.20;;;;;;4800720;29;20045;-81
2022/01/09 07:30:43;;;;;;;58.33;31.92;;;-0.70;96.90;;;;;;4794222;30;20039;-80
2022/01/09 07:33:09;;;;;;;58.30;31.27;;;-0.60;96.80;;;;;;4803297;29;20062;-80
2022/01/09 07:35:35;;;;;;;60.13;31.37;;;-0.50;96.70;;;;;;4809526;29;20043;-81
2022/01/09 07:38:03;;;;;;;61.70;32.20;;;-0.50;96.40;;;;;;4785473;29;20219;-81
2022/01/09 07:40:29;;;;;;;61.00;30.63;;;-0.40;96.40;;;;;;4800592;29;20046;-81
2022/01/09 07:42:55;;;;;;;59.03;31.27;;;-0.30;96.30;;;;;;4813630;29;20042;-81
2022/01/09 07:45:24;;;;;;;55.60;32.38;;;-0.20;96.10;;;;;;4801181;29;20171;-81
2022/01/09 07:47:54;;;;;;;66.05;32.30;;;-0.20;96.10;;;;;;4817782;29;20056;-81
2022/01/09 07:50:20;;;;;;;56.05;30.70;;;-0.20;96.00;;;;;;4818853;29;20038;-81
2022/01/09 07:52:46;;;;;;;58.83;31.33;;;-0.10;96.10;;;;;;4807071;29;20039;-81
2022/01/09 07:55:12;;;;;;;55.45;31.60;;;-0.10;96.10;;;;;;4835435;29;20064;-81
2022/01/09 07:57:38;;;;;;;65.80;32.67;;;0.00;96.10;;;;;;4836149;29;20064;-81
2022/01/09 08:00:09;;;;;;;58.30;29.88;;;0.10;95.80;;;;;;4804567;29;20062;-81
2022/01/09 08:02:42;;;;;;;62.45;31.45;;;0.10;95.80;;;;;;4813810;29;20045;-81
2022/01/09 08:05:09;;;;;;;58.63;29.35;;;0.10;95.50;;;;;;4807970;29;20234;-81
2022/01/09 08:07:34;;;;;;;62.85;32.38;;;0.10;95.30;;;;;;4808015;29;20327;-81
2022/01/09 08:10:00;;;;;;;62.35;31.20;;;0.00;95.40;;;;;;4797172;29;20039;-81
2022/01/09 08:12:26;;;;;;;54.97;30.85;;;0.10;95.60;;;;;;4805707;29;20243;-81
2022/01/09 08:14:55;;;;;;;56.60;30.45;;;0.10;95.80;;;;;;4805630;29;20098;-81
2022/01/09 08:17:21;;;;;;;58.15;31.88;;;0.10;95.60;;;;;;4797317;29;20118;-81
2022/01/09 08:19:47;;;;;;;59.67;31.25;;;0.10;95.50;;;;;;4785784;29;20043;-81
2022/01/09 08:22:12;;;;;;;58.85;29.60;;;0.10;95.60;;;;;;4785728;29;20105;-80
2022/01/09 08:24:41;;;;;;;58.50;32.33;;;0.10;95.80;;;;;;4799687;29;20039;-81
2022/01/09 08:27:08;;;;;;;62.92;33.10;;;0.10;95.80;;;;;;4804488;29;20349;-81
2022/01/09 08:29:35;;;;;;;63.17;33.22;;;0.20;96.10;;;;;;4798350;29;20042;-81
2022/01/09 08:32:02;;;;;;;56.63;30.50;;;0.20;96.00;;;;;;4810715;29;20079;-80
2022/01/09 08:34:27;;;;;;;;;;;0.20;95.60;;;;;;4805044;29;20045;-80
2022/01/09 08:36:53;;;;;;;63.70;30.07;;;0.30;95.70;;;;;;4803186;29;19945;-81
2022/01/09 08:39:19;;;;;;;58.53;31.67;;;0.30;95.70;;;;;;4790354;29;20076;-81
2022/01/09 08:41:48;;;;;;;60.50;29.42;;;0.30;95.70;;;;;;4806197;29;20031;-81
2022/01/09 08:44:14;;;;;;;56.53;30.45;;;0.30;95.40;;;;;;4768871;29;20324;-81
2022/01/09 08:46:40;;;;;;;53.45;28.92;;;0.40;95.60;;;;;;4808065;29;20054;-80
2022/01/09 08:49:06;;;;;;;54.15;29.00;;;0.30;95.60;;;;;;4761736;29;20027;-80
2022/01/09 08:51:32;;;;;;;55.72;29.27;;;0.40;95.70;;;;;;4796623;29;20031;-80
2022/01/09 08:53:59;;;;;;;61.72;32.60;;;0.40;95.40;;;;;;4809294;29;20043;-80
2022/01/09 08:56:26;;;;;;;;;;;0.40;95.60;;;;;;4801146;29;20027;-81
2022/01/09 08:58:53;;;;;;;53.25;29.75;;;0.40;95.80;;;;;;4807150;29;19975;-80
2022/01/09 09:01:19;;;;;;;59.47;31.33;;;0.40;95.70;;;;;;4825939;29;20122;-81
2022/01/09 09:03:48;;;;;;;54.95;28.40;;;0.40;96.00;;;;;;4775280;29;20054;-80
2022/01/09 09:06:15;;;;;;;52.28;28.63;;;0.50;96.10;;;;;;4803462;29;20324;-82
2022/01/09 09:08:42;;;;;;;56.75;29.85;;;0.50;96.10;;;;;;4791168;29;20113;-82
2022/01/09 09:11:12;;;;;;;56.63;29.98;;;0.50;96.30;;;;;;4806060;29;20027;-82
2022/01/09 09:13:38;;;;;;;54.72;30.30;;;0.50;96.20;;;;;;4798485;29;20109;-82
2022/01/09 09:16:05;;;;;;;71.93;30.75;;;0.50;96.30;;;;;;4794264;29;20350;-83
2022/01/09 09:18:31;;;;;;;60.38;30.75;;;0.60;96.30;;;;;;4795694;29;20027;-82
2022/01/09 09:20:57;;;;;;;57.60;29.92;;;0.60;96.30;;;;;;4796140;29;20239;-83
2022/01/09 09:23:23;;;;;;;61.90;30.70;;;0.60;96.30;;;;;;4796962;29;20038;-82
2022/01/09 09:25:49;;;;;;;57.88;29.58;;;0.60;96.50;;;;;;4809322;29;20294;-83
2022/01/09 09:28:15;;;;;;;56.65;30.98;;;0.60;96.50;;;;;;4774571;29;20101;-83
2022/01/09 09:30:41;;;;;;;58.42;32.13;;;0.70;96.50;;;;;;4791845;29;20070;-83
2022/01/09 09:33:08;;;;;;;56.03;29.63;;;0.80;96.50;;;;;;4777974;29;20242;-83
2022/01/09 09:35:34;;;;;;;58.13;30.67;;;1.00;96.10;;;;;;4796277;29;20027;-83
2022/01/09 09:38:00;;;;;;;52.25;28.33;;;1.00;95.60;;;;;;4796866;29;20491;-83
2022/01/09 09:40:27;;;;;;;58.00;27.93;;;1.10;95.80;;;;;;4791117;29;20037;-83
2022/01/09 09:42:54;;;;;;;60.23;30.50;;;1.10;95.40;;;;;;4797948;29;20123;-83
2022/01/09 09:45:19;;;;;;;;;;;1.20;95.40;;;;;;4783696;29;20065;-82
2022/01/09 09:47:45;;;;;;;57.88;28.88;;;1.20;95.00;;;;;;4812597;29;19983;-83
2022/01/09 09:50:14;;;;;;;57.42;29.02;;;1.30;95.40;;;;;;4783711;29;20027;-82
2022/01/09 09:52:44;;;;;;;57.58;30.45;;;1.40;95.10;;;;;;4798654;29;20031;-82
2022/01/09 09:55:10;;;;;;;55.10;30.35;;;1.50;94.80;;;;;;4808147;29;20043;-83
2022/01/09 09:57:36;;;;;;;55.92;29.65;;;1.60;94.60;;;;;;4808669;29;20053;-82
2022/01/09 10:00:10;;;;;;;54.08;28.85;;;1.70;94.20;;;;;;4793096;29;20043;-82
2022/01/09 10:02:44;;;;;;;55.13;29.10;;;1.60;93.90;;;;;;4804997;29;20327;-83
2022/01/09 10:05:12;;;;;;;54.80;28.90;;;1.60;94.40;;;;;;4807768;29;20042;-82
2022/01/09 10:07:37;;;;;;;53.90;29.08;;;1.80;94.40;;;;;;4797781;29;20347;-82
2022/01/09 10:10:08;;;;;;;53.63;28.33;;;1.80;94.20;;;;;;4793079;29;20084;-82
2022/01/09 10:12:34;;;;;;;54.33;28.67;;;1.80;93.90;;;;;;4798244;29;20039;-81
2022/01/09 10:15:04;;;;;;;50.03;27.17;;;1.90;93.90;;;;;;4813388;29;20042;-81
2022/01/09 10:17:31;;;;;;;50.53;26.38;;;1.90;93.50;;;;;;4796570;29;20031;-81
2022/01/09 10:19:57;;;;;;;51.38;28.35;;;1.90;93.20;;;;;;4809056;29;20097;-82
2022/01/09 10:22:43;;;;;;;57.72;28.83;;;1.90;93.50;;;;;;4798473;29;20050;-82
2022/01/09 10:25:16;;;;;;;50.97;27.65;;;1.90;93.50;;;;;;4813772;29;20397;-81
2022/01/09 10:27:42;;;;;;;60.70;28.55;;;1.90;93.40;;;;;;4807930;29;20031;-81
2022/01/09 10:30:08;;;;;;;51.93;28.27;;;2.00;93.70;;;;;;4781950;30;20039;-81
2022/01/09 10:32:34;;;;;;;52.20;28.30;;;1.90;93.30;;;;;;4808712;29;20043;-81
2022/01/09 10:35:12;;;;;;;54.25;28.50;;;1.90;94.00;;;;;;4811019;29;20045;-82
2022/01/09 10:37:41;;;;;;;54.10;27.80;;;2.10;93.80;;;;;;4797727;29;20030;-81
2022/01/09 10:40:09;;;;;;;56.67;29.25;;;2.10;93.60;;;;;;4797611;29;20102;-82
2022/01/09 10:42:36;;;;;;;59.05;29.90;;;2.10;93.70;;;;;;4780197;29;20224;-82
2022/01/09 10:45:21;;;;;;;;;;;2.20;93.60;;;;;;4812669;29;20039;-83
2022/01/09 10:47:48;;;;;;;49.20;27.27;;;2.30;93.20;;;;;;4807898;29;19969;-82
2022/01/09 10:50:25;;;;;;;53.08;28.88;;;2.40;93.30;;;;;;4773377;29;20046;-82
2022/01/09 10:52:51;;;;;;;49.38;28.33;;;2.40;93.20;;;;;;4805073;29;20089;-83
2022/01/09 10:55:17;;;;;;;50.38;28.42;;;2.50;93.50;;;;;;4806253;29;20043;-83
2022/01/09 10:57:44;;;;;;;48.13;26.70;;;2.60;93.30;;;;;;4765856;29;20046;-82
2022/01/09 11:00:16;;;;;;;47.78;27.00;;;2.70;93.00;;;;;;4783950;29;20314;-83
2022/01/09 11:02:45;;;;;;;52.97;27.23;;;2.80;92.70;;;;;;4815684;29;20042;-82
2022/01/09 11:05:11;;;;;;;53.95;28.63;;;2.90;92.20;;;;;;4801616;29;20374;-83
2022/01/09 11:07:37;;;;;;;50.40;27.03;;;2.80;92.30;;;;;;4786756;29;20054;-83
2022/01/09 11:10:06;;;;;;;53.50;28.13;;;2.80;92.50;;;;;;4779162;29;20035;-83
2022/01/09 11:12:42;;;;;;;52.25;27.42;;;2.90;92.60;;;;;;4799595;29;20042;-83
2022/01/09 11:15:10;;;;;;;54.80;28.05;;;3.00;92.00;;;;;;4802182;29;20055;-82
2022/01/09 11:17:36;;;;;;;48.67;27.73;;;3.00;92.20;;;;;;4786122;29;20126;-82
2022/01/09 11:20:02;;;;;;;46.45;25.63;;;3.00;92.10;;;;;;4786438;29;20067;-82
2022/01/09 11:22:28;;;;;;;51.45;27.75;;;3.00;91.90;;;;;;4801183;29;20042;-82
2022/01/09 11:25:11;;;;;;;48.58;28.55;;;2.90;92.20;;;;;;4801094;29;20071;-82
2022/01/09 11:27:49;;;;;;;50.80;27.35;;;3.00;92.50;;;;;;4803097;29;20039;-82
2022/01/09 11:30:19;;;;;;;51.92;27.42;;;3.00;92.40;;;;;;4809653;29;20081;-82
2022/01/09 11:33:04;;;;;;;51.88;27.98;;;3.00;92.40;;;;;;4799046;29;20038;-82
2022/01/09 11:35:48;;;;;;;52.95;29.92;;;3.10;92.30;;;;;;4807593;29;20034;-82
2022/01/09 11:38:45;;;;;;;48.92;27.67;;;3.20;92.40;;;;;;4797746;29;20038;-82
2022/01/09 11:41:24;;;;;;;58.05;28.60;;;3.20;92.30;;;;;;4800831;29;20085;-82
2022/01/09 11:44:05;;;;;;;54.25;28.25;;;3.30;92.00;;;;;;4815920;29;20030;-82
2022/01/09 11:46:56;;;;;;;53.08;29.17;;;3.20;91.90;;;;;;4800151;29;20067;-83
2022/01/09 11:49:22;;;;;;;52.83;28.27;;;3.20;91.60;;;;;;4806329;29;20223;-82
2022/01/09 11:51:59;;;;;;;53.42;29.35;;;3.00;92.80;;;;;;4794661;29;20031;-82
2022/01/09 11:54:26;;;;;;;51.88;29.05;;;3.10;92.50;;;;;;4802492;29;20110;-83
2022/01/09 11:56:55;;;;;;;49.85;27.77;;;3.20;92.70;;;;;;4799230;29;20042;-83
2022/01/09 11:59:23;;;;;;;55.40;28.85;;;3.30;92.10;;;;;;4805603;29;20030;-84
2022/01/09 12:02:09;;;;;;;57.60;26.25;;;3.30;92.30;;;;;;4799270;29;20088;-83
2022/01/09 12:04:41;;;;;;;49.07;27.67;;;3.30;92.20;;;;;;4804969;29;20212;-83
2022/01/09 12:07:08;;;;;;;47.60;25.63;;;3.30;91.70;;;;;;4823742;29;20276;-82
2022/01/09 12:09:46;;;;;;;;;;;3.30;91.50;;;;;;4805617;29;20058;-83
2022/01/09 12:12:20;;;;;;;48.03;26.10;;;3.20;91.60;;;;;;4821917;29;19917;-82
2022/01/09 12:14:51;;;;;;;51.25;27.38;;;3.10;91.70;;;;;;4794728;29;20455;-82
2022/01/09 12:17:26;;;;;;;52.15;25.73;;;3.10;91.70;;;;;;4807346;29;20253;-83
2022/01/09 12:20:12;;;;;;;61.50;32.83;;;3.10;91.60;;;;;;4808251;29;20034;-83
2022/01/09 12:22:46;;;;;;;55.38;29.23;;;3.10;92.00;;;;;;4806311;29;20046;-83
2022/01/09 12:25:24;;;;;;;46.65;26.63;;;3.10;91.50;;;;;;4808557;29;20054;-83
2022/01/09 12:27:57;;;;;;;50.50;27.35;;;3.10;91.60;;;;;;4803493;29;20335;-84
2022/01/09 12:30:50;;;;;;;64.53;33.47;;;3.20;91.70;;;;;;4808110;29;20038;-83
2022/01/09 12:33:20;;;;;;;55.58;30.40;;;3.30;91.70;;;;;;4819050;29;20058;-83
2022/01/09 12:35:56;;;;;;;51.30;28.27;;;3.40;91.50;;;;;;4821664;29;20031;-83
2022/01/09 12:38:23;;;;;;;55.05;29.88;;;3.50;91.60;;;;;;4805679;29;20038;-83
2022/01/09 12:40:56;;;;;;;52.22;26.55;;;3.60;91.30;;;;;;4807809;29;20049;-83
2022/01/09 12:43:23;;;;;;;51.65;28.48;;;3.60;91.20;;;;;;4804745;29;20031;-83
2022/01/09 12:45:50;;;;;;;68.72;36.60;;;3.70;91.40;;;;;;4792689;29;20422;-83
2022/01/09 12:48:24;;;;;;;50.00;26.42;;;3.70;91.10;;;;;;4778305;29;20053;-83
2022/01/09 12:50:51;;;;;;;53.25;28.63;;;3.80;91.10;;;;;;4821038;29;20043;-83
2022/01/09 12:53:18;;;;;;;51.13;26.33;;;3.90;91.00;;;;;;4794762;29;20067;-84
2022/01/09 12:56:04;;;;;;;51.13;27.15;;;4.00;90.80;;;;;;4810998;29;20035;-83
2022/01/09 12:58:34;;;;;;;;;;;4.10;91.10;;;;;;4808695;29;20206;-83
2022/01/09 13:01:07;;;;;;;45.92;25.15;;;4.10;91.00;;;;;;4822776;29;19910;-83
2022/01/09 13:03:34;;;;;;;52.30;26.45;;;4.10;90.90;;;;;;4793766;29;20035;-84
2022/01/09 13:06:02;;;;;;;50.53;27.05;;;4.20;90.80;;;;;;4804866;29;20061;-83
2022/01/09 13:08:29;;;;;;;47.88;26.15;;;4.30;90.70;;;;;;4806272;29;20323;-83
2022/01/09 13:11:04;;;;;;;46.10;25.48;;;4.20;90.50;;;;;;4801217;29;20039;-82
2022/01/09 13:13:33;;;;;;;51.15;26.77;;;4.30;90.70;;;;;;4797674;29;20039;-83
2022/01/09 13:16:09;;;;;;;59.05;29.88;;;4.30;90.70;;;;;;4785849;29;20211;-82
2022/01/09 13:18:43;;;;;;;50.80;27.30;;;4.30;90.70;;;;;;4797695;29;20035;-82
2022/01/09 13:21:21;;;;;;;46.60;26.30;;;4.20;90.60;;;;;;4809543;29;20037;-83
2022/01/09 13:24:01;;;;;;;52.60;26.95;;;4.20;90.90;;;;;;4812285;29;20105;-83
2022/01/09 13:26:31;;;;;;;48.20;27.50;;;4.30;91.10;;;;;;4808716;29;20047;-83
2022/01/09 13:28:57;;;;;;;49.05;28.25;;;4.30;91.10;;;;;;4825900;29;20111;-83
2022/01/09 13:31:24;;;;;;;48.97;28.50;;;4.40;91.40;;;;;;4818142;29;20050;-83
2022/01/09 13:34:03;;;;;;;48.33;26.70;;;4.40;91.20;;;;;;4791487;29;20049;-83
2022/01/09 13:36:33;;;;;;;54.30;29.33;;;4.40;90.90;;;;;;4816238;29;20035;-83
2022/01/09 13:39:01;;;;;;;47.97;27.23;;;4.40;91.20;;;;;;4842376;29;20034;-83
2022/01/09 13:41:34;;;;;;;57.78;30.05;;;4.30;91.00;;;;;;4797739;29;20027;-84
2022/01/09 13:44:01;;;;;;;50.42;28.55;;;4.20;91.00;;;;;;4824782;29;20344;-84
2022/01/09 13:46:27;;;;;;;53.67;27.95;;;4.10;91.00;;;;;;4784340;29;20077;-83
2022/01/09 13:48:53;;;;;;;47.90;27.17;;;3.90;91.30;;;;;;4780655;29;20039;-83
2022/01/09 13:51:41;;;;;;;47.47;26.47;;;3.90;91.80;;;;;;4786510;30;20348;-83
2022/01/09 13:54:10;;;;;;;60.13;29.23;;;4.00;91.90;;;;;;4818037;29;20110;-82
2022/01/09 13:56:36;;;;;;;54.88;28.70;;;4.00;91.80;;;;;;4801512;29;20331;-83
2022/01/09 13:59:03;;;;;;;48.15;27.83;;;3.90;92.00;;;;;;4798631;29;20035;-82
2022/01/09 14:01:45;;;;;;;52.47;27.73;;;3.90;92.00;;;;;;4806088;29;20278;-83
2022/01/09 14:04:17;;;;;;;45.53;26.60;;;3.90;91.90;;;;;;4813699;29;20216;-83
2022/01/09 14:06:43;;;;;;;50.80;27.98;;;3.90;92.10;;;;;;4813767;29;20100;-82
2022/01/09 14:09:09;;;;;;;46.97;26.55;;;3.80;92.00;;;;;;4798762;29;20043;-83
2022/01/09 14:11:35;;;;;;;49.70;26.77;;;3.80;92.00;;;;;;4804810;29;20342;-83
2022/01/09 14:14:01;;;;;;;50.83;28.35;;;3.70;92.30;;;;;;4798764;29;20366;-83
2022/01/09 14:16:36;;;;;;;45.17;25.92;;;3.70;92.30;;;;;;4798668;29;20034;-83
2022/01/09 14:19:05;;;;;;;52.67;27.35;;;3.80;92.60;;;;;;4782688;29;20046;-82
2022/01/09 14:21:32;;;;;;;49.22;27.75;;;3.80;92.40;;;;;;4789504;29;20038;-82
2022/01/09 14:24:08;;;;;;;53.50;28.13;;;3.70;92.40;;;;;;4794314;29;20034;-83
2022/01/09 14:26:34;;;;;;;48.03;27.45;;;3.70;92.50;;;;;;4794894;29;20161;-83
2022/01/09 14:29:00;;;;;;;50.92;27.55;;;3.70;92.70;;;;;;4796251;29;20057;-82
2022/01/09 14:31:33;;;;;;;49.70;27.85;;;3.70;92.60;;;;;;4798335;29;20039;-83
2022/01/09 14:33:59;;;;;;;53.92;29.45;;;3.60;92.90;;;;;;4820456;29;20058;-82
2022/01/09 14:36:31;;;;;;;58.22;30.25;;;3.50;93.00;;;;;;4781153;29;20346;-82
2022/01/09 14:38:59;;;;;;;53.60;29.63;;;3.50;93.70;;;;;;4796537;29;20047;-83
2022/01/09 14:41:30;;;;;;;55.22;27.55;;;3.40;93.40;;;;;;4811216;29;20388;-82
2022/01/09 14:43:58;;;;;;;60.42;29.45;;;3.30;93.50;;;;;;4809651;29;20038;-82
2022/01/09 14:46:24;;;;;;;58.45;28.58;;;3.30;93.60;;;;;;4796102;29;20406;-82
2022/01/09 14:48:50;;;;;;;55.28;28.73;;;3.30;93.80;;;;;;4775956;29;20039;-82
2022/01/09 14:51:16;;;;;;;59.63;29.80;;;3.30;93.80;;;;;;4806197;29;20047;-83
2022/01/09 14:53:45;;;;;;;57.83;33.07;;;3.20;94.10;;;;;;4782311;29;20134;-83
2022/01/09 14:56:11;;;;;;;58.63;30.75;;;3.20;94.20;;;;;;4823509;29;20026;-82
2022/01/09 14:58:37;;;;;;;65.38;32.88;;;3.20;94.20;;;;;;4822348;29;20055;-82
2022/01/09 15:01:06;;;;;;;65.75;32.47;;;3.10;94.10;;;;;;4809088;29;20050;-83
2022/01/09 15:03:32;;;;;;;60.00;31.50;;;3.20;94.50;;;;;;4796489;29;20035;-83
2022/01/09 15:05:59;;;;;;;65.55;32.53;;;3.20;94.60;;;;;;4810351;29;20102;-83
2022/01/09 15:08:25;;;;;;;70.90;38.20;;;3.20;94.40;;;;;;4812514;29;20035;-83
2022/01/09 15:10:52;;;;;;;66.22;36.53;;;3.10;94.20;;;;;;4795011;29;20058;-83
2022/01/09 15:13:18;;;;;;;;;;;3.10;94.40;;;;;;4795147;29;20059;-84
2022/01/09 15:15:45;;;;;;;57.43;31.77;;;3.00;94.40;;;;;;4810730;29;20120;-84
2022/01/09 15:18:11;;;;;;;57.70;30.67;;;2.90;94.60;;;;;;4807930;29;20296;-84
2022/01/09 15:20:38;;;;;;;62.80;30.55;;;2.80;94.80;;;;;;4807764;29;20299;-84
2022/01/09 15:23:06;;;;;;;56.97;29.75;;;2.70;94.90;;;;;;4799000;29;20265;-84
2022/01/09 15:25:34;;;;;;;53.85;28.85;;;2.70;95.10;;;;;;4811692;29;20034;-84
2022/01/09 15:28:01;;;;;;;56.35;29.88;;;2.80;95.10;;;;;;4808924;29;20038;-83
2022/01/09 15:30:28;;;;;;;50.00;28.13;;;2.70;95.10;;;;;;4780019;29;20050;-83
2022/01/09 15:32:55;;;;;;;59.22;28.60;;;2.60;95.20;;;;;;4829628;29;20058;-83
2022/01/09 15:35:21;;;;;;;54.67;30.00;;;2.60;95.30;;;;;;4794428;29;20046;-83
2022/01/09 15:37:48;;;;;;;57.60;29.10;;;2.50;95.60;;;;;;4812056;29;20283;-83
2022/01/09 15:40:14;;;;;;;63.63;30.35;;;2.40;96.00;;;;;;4826266;29;20255;-83
2022/01/09 15:42:40;;;;;;;59.72;29.50;;;2.40;96.30;;;;;;4794772;29;20072;-83
2022/01/09 15:45:06;;;;;;;60.40;29.90;;;2.40;96.20;;;;;;4815944;29;20386;-83
2022/01/09 15:47:32;;;;;;;65.53;33.33;;;2.40;96.20;;;;;;4808827;29;20247;-83
2022/01/09 15:50:00;;;;;;;66.07;32.40;;;2.50;96.20;;;;;;4808127;29;20034;-83
2022/01/09 15:52:27;;;;;;;64.43;33.25;;;2.40;96.30;;;;;;4783663;29;20068;-83
2022/01/09 15:54:56;;;;;;;72.20;35.53;;;2.50;96.30;;;;;;4780315;29;20051;-83
2022/01/09 15:57:23;;;;;;;60.90;32.53;;;2.50;96.20;;;;;;4813021;29;20378;-83
2022/01/09 15:59:48;;;;;;;;;;;2.50;96.10;;;;;;4823747;29;20050;-83
2022/01/09 16:02:15;;;;;;;60.20;31.23;;;2.50;96.30;;;;;;4807748;29;20209;-83
2022/01/09 16:04:41;;;;;;;64.77;31.37;;;2.50;96.00;;;;;;4782678;29;20332;-83
2022/01/09 16:07:07;;;;;;;64.10;32.25;;;2.50;96.30;;;;;;4794597;29;20117;-83
2022/01/09 16:09:35;;;;;;;60.17;33.20;;;2.40;96.80;;;;;;4805663;29;20035;-82
2022/01/09 16:12:07;;;;;;;62.80;32.85;;;2.50;96.50;;;;;;4809090;29;20047;-83
2022/01/09 16:14:34;;;;;;;70.05;36.35;;;2.50;96.30;;;;;;4782364;29;20030;-82
2022/01/09 16:17:00;;;;;;;74.65;34.63;;;2.50;96.20;;;;;;4810811;29;20043;-82
2022/01/09 16:19:26;;;;;;;67.40;33.95;;;2.50;96.20;;;;;;4798030;29;20042;-82
2022/01/09 16:21:51;;;;;;;64.57;34.20;;;2.60;96.10;;;;;;4770062;29;20073;-82
2022/01/09 16:24:17;;;;;;;65.85;33.22;;;2.60;96.10;;;;;;4797912;29;20058;-83
2022/01/09 16:26:43;;;;;;;62.13;32.70;;;2.70;96.10;;;;;;4782862;29;20082;-83
2022/01/09 16:29:14;;;;;;;66.27;33.20;;;2.70;96.10;;;;;;4783473;29;20361;-82
2022/01/09 16:31:44;;;;;;;71.45;34.47;;;2.70;96.10;;;;;;4807517;29;20038;-82